createdAt,value
2018-12-16T00:00:28.337Z,87.90
2018-12-16T00:01:28.480Z,87.80
2018-12-16T00:02:28.374Z,87.80
2018-12-16T00:03:28.319Z,87.96
2018-12-16T00:04:30.231Z,87.34
2018-12-16T00:05:28.310Z,87.48
2018-12-16T00:06:28.295Z,86.65
2018-12-16T00:07:28.283Z,86.65
2018-12-16T00:08:28.275Z,86.54
2018-12-16T00:09:28.502Z,86.92
2018-12-16T00:10:28.208Z,86.75
2018-12-16T00:11:28.267Z,87.38
2018-12-16T00:12:28.222Z,87.38
2018-12-16T00:13:28.464Z,87.48
2018-12-16T00:14:28.869Z,86.61
2018-12-16T00:15:28.333Z,86.65
2018-12-16T00:16:28.817Z,86.61
2018-12-16T00:17:28.765Z,86.61
2018-12-16T00:18:28.219Z,86.65
2018-12-16T00:19:28.820Z,86.82
2018-12-16T00:20:29.138Z,86.40
2018-12-16T00:21:28.146Z,86.75
2018-12-16T00:22:29.972Z,86.51
2018-12-16T00:23:28.090Z,86.54
2018-12-16T00:24:28.094Z,86.08
2018-12-16T00:25:28.302Z,86.33
2018-12-16T00:26:49.821Z,86.40
2018-12-16T00:27:28.057Z,86.65
2018-12-16T00:28:28.086Z,86.51
2018-12-16T00:29:28.057Z,86.54
2018-12-16T00:30:28.077Z,86.02
2018-12-16T00:31:28.043Z,86.29
2018-12-16T00:32:28.393Z,86.51
2018-12-16T00:33:28.732Z,85.98
2018-12-16T00:34:27.955Z,86.19
2018-12-16T00:35:28.154Z,85.98
2018-12-16T00:36:28.021Z,86.23
2018-12-16T00:37:28.028Z,86.02
2018-12-16T00:38:27.947Z,86.29
2018-12-16T00:39:27.963Z,86.23
2018-12-16T00:40:28.809Z,85.77
2018-12-16T00:41:28.109Z,85.71
2018-12-16T00:42:28.779Z,85.67
2018-12-16T00:43:28.381Z,85.35
2018-12-16T00:44:29.232Z,85.71
2018-12-16T00:45:28.769Z,85.14
2018-12-16T00:46:28.742Z,85.81
2018-12-16T00:47:27.835Z,85.14
2018-12-16T00:48:30.248Z,85.29
2018-12-16T00:49:27.885Z,85.25
2018-12-16T00:50:27.820Z,85.35
2018-12-16T00:51:27.818Z,85.39
2018-12-16T00:52:27.869Z,85.29
2018-12-16T00:53:27.833Z,85.35
2018-12-16T00:54:27.807Z,85.60
2018-12-16T00:55:27.787Z,85.18
2018-12-16T00:56:31.854Z,85.56
2018-12-16T00:57:28.778Z,85.18
2018-12-16T00:58:28.339Z,84.87
2018-12-16T00:59:27.709Z,84.14
2018-12-16T01:00:28.840Z,84.10
2018-12-16T01:01:27.692Z,84.66
2018-12-16T01:02:27.681Z,84.66
2018-12-16T01:03:27.704Z,85.04
2018-12-16T01:04:27.664Z,84.24
2018-12-16T01:05:27.657Z,84.34
2018-12-16T01:06:27.705Z,84.03
2018-12-16T01:07:28.235Z,83.78
2018-12-16T01:08:27.682Z,83.30
2018-12-16T01:09:27.619Z,83.93
2018-12-16T01:10:27.603Z,84.03
2018-12-16T01:11:27.576Z,84.03
2018-12-16T01:12:27.591Z,83.51
2018-12-16T01:13:27.807Z,83.09
2018-12-16T01:14:27.567Z,83.30
2018-12-16T01:15:27.549Z,83.26
2018-12-16T01:16:28.240Z,83.30
2018-12-16T01:17:27.560Z,83.20
2018-12-16T01:18:27.538Z,83.40
2018-12-16T01:19:27.524Z,83.09
2018-12-16T01:20:27.504Z,82.36
2018-12-16T01:21:27.543Z,82.67
2018-12-16T01:22:27.517Z,83.51
2018-12-16T01:23:27.456Z,83.40
2018-12-16T01:24:27.476Z,82.36
2018-12-16T01:25:27.464Z,82.57
2018-12-16T01:26:27.474Z,81.67
2018-12-16T01:27:27.448Z,81.67
2018-12-16T01:28:27.486Z,82.36
2018-12-16T01:29:27.484Z,82.05
2018-12-16T01:30:27.458Z,81.95
2018-12-16T01:31:27.420Z,81.52
2018-12-16T01:32:27.428Z,81.73
2018-12-16T01:33:27.356Z,81.32
2018-12-16T01:34:27.354Z,81.35
2018-12-16T01:35:27.408Z,80.79
2018-12-16T01:36:27.314Z,80.41
2018-12-16T01:37:27.318Z,80.27
2018-12-16T01:38:27.346Z,80.48
2018-12-16T01:39:27.335Z,80.90
2018-12-16T01:40:27.285Z,80.90
2018-12-16T01:41:27.308Z,80.90
2018-12-16T01:42:27.838Z,80.48
2018-12-16T01:43:27.381Z,79.05
2018-12-16T01:44:27.777Z,78.91
2018-12-16T01:45:27.496Z,79.64
2018-12-16T01:46:27.556Z,79.22
2018-12-16T01:47:27.292Z,79.85
2018-12-16T01:48:27.291Z,79.64
2018-12-16T01:49:27.197Z,80.06
2018-12-16T01:50:27.216Z,79.26
2018-12-16T01:51:27.213Z,78.60
2018-12-16T01:52:27.182Z,78.81
2018-12-16T01:53:27.228Z,78.74
2018-12-16T01:54:27.141Z,78.70
2018-12-16T01:55:27.168Z,79.36
2018-12-16T01:56:27.155Z,78.32
2018-12-16T01:57:27.136Z,78.53
2018-12-16T01:58:27.114Z,78.32
2018-12-16T01:59:27.148Z,78.70
2018-12-16T02:00:27.094Z,79.02
2018-12-16T02:01:27.073Z,77.55
2018-12-16T02:02:27.079Z,77.24
2018-12-16T02:03:27.071Z,77.06
2018-12-16T02:04:27.032Z,77.14
2018-12-16T02:05:27.018Z,77.34
2018-12-16T02:06:27.032Z,77.59
2018-12-16T02:07:27.041Z,77.24
2018-12-16T02:08:27.746Z,76.33
2018-12-16T02:09:26.989Z,76.33
2018-12-16T02:10:27.249Z,76.20
2018-12-16T02:11:27.119Z,76.12
2018-12-16T02:12:27.158Z,76.40
2018-12-16T02:13:27.739Z,76.51
2018-12-16T02:14:26.964Z,76.02
2018-12-16T02:15:26.947Z,76.20
2018-12-16T02:16:27.021Z,75.98
2018-12-16T02:17:26.963Z,76.12
2018-12-16T02:18:26.895Z,76.33
2018-12-16T02:19:26.874Z,76.12
2018-12-16T02:20:26.907Z,76.33
2018-12-16T02:21:26.944Z,75.46
2018-12-16T02:22:26.933Z,75.57
2018-12-16T02:23:26.849Z,75.08
2018-12-16T02:24:26.820Z,75.18
2018-12-16T02:25:26.816Z,74.87
2018-12-16T02:26:26.798Z,75.46
2018-12-16T02:27:26.830Z,75.49
2018-12-16T02:28:26.799Z,75.71
2018-12-16T02:29:26.770Z,74.87
2018-12-16T02:30:26.804Z,74.90
2018-12-16T02:31:26.781Z,75.18
2018-12-16T02:32:26.770Z,75.18
2018-12-16T02:33:26.798Z,74.45
2018-12-16T02:34:26.781Z,74.45
2018-12-16T02:35:26.702Z,73.82
2018-12-16T02:36:26.730Z,73.30
2018-12-16T02:37:26.723Z,73.19
2018-12-16T02:38:26.674Z,72.99
2018-12-16T02:39:26.685Z,72.57
2018-12-16T02:40:26.718Z,71.11
2018-12-16T02:41:26.656Z,71.94
2018-12-16T02:42:26.648Z,72.47
2018-12-16T02:43:26.661Z,72.25
2018-12-16T02:44:26.643Z,72.47
2018-12-16T02:45:26.602Z,72.57
2018-12-16T02:46:26.636Z,72.25
2018-12-16T02:47:27.256Z,72.67
2018-12-16T02:48:26.608Z,71.62
2018-12-16T02:49:26.623Z,71.00
2018-12-16T02:50:26.577Z,71.11
2018-12-16T02:51:26.602Z,70.90
2018-12-16T02:52:26.636Z,70.90
2018-12-16T02:53:26.564Z,71.84
2018-12-16T02:54:26.536Z,70.68
2018-12-16T02:55:26.505Z,71.21
2018-12-16T02:56:26.561Z,70.90
2018-12-16T02:57:26.552Z,71.00
2018-12-16T02:58:26.528Z,71.00
2018-12-16T02:59:26.497Z,70.48
2018-12-16T03:00:26.460Z,71.00
2018-12-16T03:01:26.428Z,70.90
2018-12-16T03:02:26.528Z,71.00
2018-12-16T03:03:26.433Z,70.68
2018-12-16T03:04:26.488Z,70.17
2018-12-16T03:05:26.379Z,70.06
2018-12-16T03:06:26.380Z,70.06
2018-12-16T03:07:26.383Z,70.06
2018-12-16T03:08:26.409Z,69.12
2018-12-16T03:09:27.345Z,68.60
2018-12-16T03:10:26.369Z,68.60
2018-12-16T03:11:26.404Z,68.49
2018-12-16T03:12:26.487Z,67.97
2018-12-16T03:13:26.309Z,66.50
2018-12-16T03:14:26.380Z,67.24
2018-12-16T03:15:26.433Z,67.03
2018-12-16T03:16:27.251Z,66.93
2018-12-16T03:17:26.283Z,66.71
2018-12-16T03:18:26.270Z,66.61
2018-12-16T03:19:26.266Z,66.50
2018-12-16T03:20:26.240Z,66.30
2018-12-16T03:21:26.219Z,66.30
2018-12-16T03:22:26.262Z,66.50
2018-12-16T03:23:26.202Z,65.98
2018-12-16T03:24:26.219Z,66.19
2018-12-16T03:25:26.226Z,64.94
2018-12-16T03:26:26.162Z,65.36
2018-12-16T03:27:26.193Z,65.04
2018-12-16T03:28:26.250Z,65.25
2018-12-16T03:29:26.190Z,65.77
2018-12-16T03:30:26.142Z,64.51
2018-12-16T03:31:26.184Z,63.89
2018-12-16T03:32:26.157Z,63.47
2018-12-16T03:33:26.223Z,63.47
2018-12-16T03:34:26.125Z,64.20
2018-12-16T03:35:26.070Z,64.31
2018-12-16T03:36:26.125Z,63.76
2018-12-16T03:37:26.100Z,62.92
2018-12-16T03:38:26.059Z,62.84
2018-12-16T03:39:26.050Z,63.47
2018-12-16T03:40:26.108Z,64.49
2018-12-16T03:41:26.108Z,65.56
2018-12-16T03:42:26.045Z,65.84
2018-12-16T03:43:26.021Z,67.03
2018-12-16T03:44:26.039Z,67.34
2018-12-16T03:45:26.061Z,67.97
2018-12-16T03:46:26.026Z,68.38
2018-12-16T03:47:26.037Z,68.60
2018-12-16T03:48:25.966Z,69.43
2018-12-16T03:49:25.984Z,69.95
2018-12-16T03:50:25.978Z,70.90
2018-12-16T03:51:26.038Z,70.68
2018-12-16T03:52:25.921Z,70.79
2018-12-16T03:53:26.007Z,71.42
2018-12-16T03:54:25.901Z,70.90
2018-12-16T03:55:25.894Z,72.36
2018-12-16T03:56:26.015Z,71.94
2018-12-16T03:57:25.904Z,72.50
2018-12-16T03:58:25.839Z,72.60
2018-12-16T03:59:25.907Z,72.47
2018-12-16T04:00:25.863Z,72.67
2018-12-16T04:01:25.957Z,73.09
2018-12-16T04:02:25.856Z,72.88
2018-12-16T04:03:25.962Z,73.33
2018-12-16T04:04:25.829Z,73.44
2018-12-16T04:05:25.805Z,73.96
2018-12-16T04:06:25.839Z,73.93
2018-12-16T04:07:25.769Z,74.38
2018-12-16T04:08:25.754Z,74.49
2018-12-16T04:09:25.779Z,75.08
2018-12-16T04:10:25.723Z,74.27
2018-12-16T04:11:25.714Z,75.11
2018-12-16T04:12:25.715Z,75.01
2018-12-16T04:13:25.754Z,75.74
2018-12-16T04:14:26.375Z,75.74
2018-12-16T04:15:25.695Z,75.74
2018-12-16T04:16:25.721Z,75.63
2018-12-16T04:17:25.676Z,75.95
2018-12-16T04:18:25.720Z,75.95
2018-12-16T04:19:25.746Z,76.16
2018-12-16T04:20:34.397Z,76.47
2018-12-16T04:21:25.618Z,76.37
2018-12-16T04:22:25.621Z,76.47
2018-12-16T04:23:27.589Z,76.89
2018-12-16T04:24:25.571Z,76.79
2018-12-16T04:25:25.590Z,76.89
2018-12-16T04:26:25.567Z,77.20
2018-12-16T04:27:25.553Z,77.20
2018-12-16T04:28:25.532Z,77.20
2018-12-16T04:29:25.541Z,77.31
2018-12-16T04:30:25.525Z,77.52
2018-12-16T04:31:25.556Z,77.42
2018-12-16T04:32:25.530Z,77.31
2018-12-16T04:33:25.553Z,77.52
2018-12-16T04:34:25.514Z,77.42
2018-12-16T04:35:25.471Z,77.73
2018-12-16T04:36:25.466Z,78.15
2018-12-16T04:37:25.457Z,78.67
2018-12-16T04:38:25.427Z,78.15
2018-12-16T04:39:25.514Z,78.70
2018-12-16T04:40:25.447Z,78.56
2018-12-16T04:41:25.416Z,78.77
2018-12-16T04:42:25.414Z,78.56
2018-12-16T04:43:25.380Z,78.88
2018-12-16T04:44:25.424Z,79.19
2018-12-16T04:45:25.413Z,78.99
2018-12-16T04:46:25.356Z,78.99
2018-12-16T04:47:25.329Z,79.61
2018-12-16T04:48:25.347Z,79.40
2018-12-16T04:49:25.321Z,79.82
2018-12-16T04:50:25.334Z,79.72
2018-12-16T04:51:25.373Z,79.50
2018-12-16T04:52:25.345Z,79.40
2018-12-16T04:53:25.319Z,79.61
2018-12-16T04:54:25.268Z,78.88
2018-12-16T04:55:25.271Z,79.09
2018-12-16T04:56:25.445Z,79.82
2018-12-16T04:57:25.253Z,79.72
2018-12-16T04:58:25.246Z,79.50
2018-12-16T04:59:25.258Z,79.93
2018-12-16T05:00:25.253Z,79.40
2018-12-16T05:01:25.185Z,80.07
2018-12-16T05:02:25.211Z,80.03
2018-12-16T05:03:25.209Z,79.54
2018-12-16T05:04:25.169Z,79.86
2018-12-16T05:05:25.141Z,79.54
2018-12-16T05:06:25.209Z,79.50
2018-12-16T05:07:25.158Z,79.30
2018-12-16T05:08:25.163Z,80.03
2018-12-16T05:09:25.124Z,79.23
2018-12-16T05:10:25.099Z,79.72
2018-12-16T05:11:25.118Z,78.77
2018-12-16T05:12:25.102Z,79.13
2018-12-16T05:13:25.077Z,79.09
2018-12-16T05:14:25.137Z,79.09
2018-12-16T05:15:25.127Z,78.91
2018-12-16T05:16:25.142Z,80.07
2018-12-16T05:17:25.110Z,79.54
2018-12-16T05:18:25.273Z,79.86
2018-12-16T05:19:25.100Z,80.17
2018-12-16T05:20:25.015Z,79.82
2018-12-16T05:21:25.037Z,80.13
2018-12-16T05:22:25.008Z,79.13
2018-12-16T05:23:24.949Z,80.45
2018-12-16T05:24:25.019Z,79.64
2018-12-16T05:25:25.120Z,79.82
2018-12-16T05:26:24.939Z,79.82
2018-12-16T05:27:24.943Z,79.82
2018-12-16T05:28:24.928Z,79.50
2018-12-16T05:29:24.927Z,79.50
2018-12-16T05:30:24.943Z,79.82
2018-12-16T05:31:24.898Z,79.02
2018-12-16T05:32:24.892Z,79.86
2018-12-16T05:33:24.910Z,79.96
2018-12-16T05:34:24.943Z,79.33
2018-12-16T05:35:24.930Z,79.75
2018-12-16T05:36:24.827Z,79.93
2018-12-16T05:37:24.857Z,79.61
2018-12-16T05:38:24.819Z,79.44
2018-12-16T05:39:24.830Z,79.50
2018-12-16T05:40:24.842Z,79.75
2018-12-16T05:41:24.796Z,79.72
2018-12-16T05:42:24.794Z,80.03
2018-12-16T05:43:24.794Z,80.07
2018-12-16T05:44:24.762Z,79.96
2018-12-16T05:45:24.763Z,80.07
2018-12-16T05:46:24.795Z,79.96
2018-12-16T05:47:24.741Z,79.96
2018-12-16T05:48:24.754Z,80.17
2018-12-16T05:49:25.294Z,80.17
2018-12-16T05:50:24.704Z,80.07
2018-12-16T05:51:24.703Z,79.40
2018-12-16T05:52:24.687Z,79.64
2018-12-16T05:53:24.675Z,79.13
2018-12-16T05:54:24.662Z,78.56
2018-12-16T05:55:24.674Z,78.50
2018-12-16T05:56:24.682Z,78.25
2018-12-16T05:57:24.627Z,78.50
2018-12-16T05:58:24.617Z,78.56
2018-12-16T05:59:24.624Z,78.29
2018-12-16T06:00:24.606Z,77.97
2018-12-16T06:01:24.577Z,78.04
2018-12-16T06:02:24.576Z,78.08
2018-12-16T06:03:24.581Z,77.73
2018-12-16T06:04:24.558Z,77.87
2018-12-16T06:05:24.540Z,77.66
2018-12-16T06:06:24.535Z,77.66
2018-12-16T06:07:24.623Z,77.62
2018-12-16T06:08:24.582Z,77.62
2018-12-16T06:09:24.572Z,77.52
2018-12-16T06:10:24.511Z,77.73
2018-12-16T06:11:24.524Z,77.66
2018-12-16T06:12:24.561Z,77.34
2018-12-16T06:13:24.500Z,77.62
2018-12-16T06:14:24.480Z,78.18
2018-12-16T06:15:24.658Z,78.39
2018-12-16T06:16:24.476Z,78.15
2018-12-16T06:17:24.469Z,78.08
2018-12-16T06:18:24.434Z,78.18
2018-12-16T06:19:24.407Z,78.08
2018-12-16T06:20:24.409Z,77.94
2018-12-16T06:21:24.541Z,77.73
2018-12-16T06:22:24.433Z,78.15
2018-12-16T06:23:24.388Z,78.04
2018-12-16T06:24:24.397Z,78.18
2018-12-16T06:25:24.575Z,77.97
2018-12-16T06:26:24.326Z,77.52
2018-12-16T06:27:24.462Z,77.66
2018-12-16T06:28:24.368Z,77.87
2018-12-16T06:29:24.305Z,77.87
2018-12-16T06:30:24.409Z,77.62
2018-12-16T06:31:24.329Z,77.55
2018-12-16T06:32:24.282Z,77.66
2018-12-16T06:33:24.284Z,77.76
2018-12-16T06:34:24.298Z,78.15
2018-12-16T06:35:24.241Z,77.83
2018-12-16T06:36:24.215Z,77.87
2018-12-16T06:37:24.273Z,77.66
2018-12-16T06:38:24.200Z,77.66
2018-12-16T06:39:24.249Z,77.76
2018-12-16T06:40:24.199Z,77.76
2018-12-16T06:41:24.199Z,77.62
2018-12-16T06:42:24.181Z,77.76
2018-12-16T06:43:24.197Z,77.97
2018-12-16T06:44:24.178Z,78.15
2018-12-16T06:45:24.212Z,78.39
2018-12-16T06:46:24.148Z,78.18
2018-12-16T06:47:24.128Z,78.04
2018-12-16T06:48:24.113Z,78.04
2018-12-16T06:49:24.110Z,77.97
2018-12-16T06:50:24.123Z,77.31
2018-12-16T06:51:24.079Z,77.20
2018-12-16T06:52:24.284Z,77.31
2018-12-16T06:53:24.065Z,77.45
2018-12-16T06:54:24.053Z,77.45
2018-12-16T06:55:24.073Z,77.45
2018-12-16T06:56:24.040Z,77.42
2018-12-16T06:57:24.040Z,77.20
2018-12-16T06:58:24.796Z,77.45
2018-12-16T06:59:24.228Z,77.52
2018-12-16T07:00:23.988Z,77.10
2018-12-16T07:01:24.026Z,76.20
2018-12-16T07:02:23.980Z,76.16
2018-12-16T07:03:23.962Z,75.67
2018-12-16T07:04:23.932Z,75.22
2018-12-16T07:05:24.036Z,75.88
2018-12-16T07:06:24.057Z,75.95
2018-12-16T07:07:23.929Z,75.78
2018-12-16T07:08:23.897Z,76.09
2018-12-16T07:09:23.887Z,76.09
2018-12-16T07:10:23.920Z,76.20
2018-12-16T07:11:23.925Z,75.84
2018-12-16T07:12:23.911Z,76.16
2018-12-16T07:13:23.897Z,76.40
2018-12-16T07:14:23.901Z,76.06
2018-12-16T07:15:23.891Z,76.09
2018-12-16T07:16:23.845Z,75.78
2018-12-16T07:17:23.845Z,75.22
2018-12-16T07:18:23.862Z,74.17
2018-12-16T07:19:23.811Z,75.04
2018-12-16T07:20:23.780Z,75.15
2018-12-16T07:21:23.997Z,73.86
2018-12-16T07:22:23.791Z,74.49
2018-12-16T07:23:23.815Z,74.59
2018-12-16T07:24:23.889Z,74.49
2018-12-16T07:25:23.789Z,73.68
2018-12-16T07:26:23.704Z,74.38
2018-12-16T07:27:23.734Z,73.33
2018-12-16T07:28:23.784Z,73.58
2018-12-16T07:29:23.720Z,73.23
2018-12-16T07:30:23.693Z,72.60
2018-12-16T07:31:23.670Z,72.71
2018-12-16T07:32:23.693Z,72.71
2018-12-16T07:33:23.764Z,72.60
2018-12-16T07:34:23.662Z,72.81
2018-12-16T07:35:23.619Z,72.19
2018-12-16T07:36:23.635Z,71.77
2018-12-16T07:37:23.605Z,70.83
2018-12-16T07:38:23.618Z,71.38
2018-12-16T07:39:23.636Z,72.53
2018-12-16T07:40:23.578Z,71.87
2018-12-16T07:41:23.569Z,71.14
2018-12-16T07:42:23.587Z,71.03
2018-12-16T07:43:23.598Z,71.77
2018-12-16T07:44:23.572Z,71.45
2018-12-16T07:45:23.561Z,71.59
2018-12-16T07:46:23.556Z,71.38
2018-12-16T07:47:23.512Z,72.08
2018-12-16T07:48:23.541Z,71.90
2018-12-16T07:49:23.488Z,72.29
2018-12-16T07:50:23.538Z,71.97
2018-12-16T07:51:23.514Z,72.08
2018-12-16T07:52:23.511Z,72.39
2018-12-16T07:53:23.440Z,72.19
2018-12-16T07:54:23.520Z,72.60
2018-12-16T07:55:23.440Z,73.02
2018-12-16T07:56:23.452Z,72.42
2018-12-16T07:57:23.375Z,71.03
2018-12-16T07:58:24.298Z,70.72
2018-12-16T07:59:23.401Z,70.30
2018-12-16T08:00:23.402Z,70.61
2018-12-16T08:01:23.387Z,69.88
2018-12-16T08:02:23.361Z,69.15
2018-12-16T08:03:23.374Z,69.57
2018-12-16T08:04:23.341Z,69.26
2018-12-16T08:05:23.303Z,70.61
2018-12-16T08:06:23.422Z,70.83
2018-12-16T08:07:23.314Z,71.03
2018-12-16T08:08:23.312Z,71.24
2018-12-16T08:09:23.303Z,70.83
2018-12-16T08:10:23.284Z,71.56
2018-12-16T08:11:23.249Z,71.45
2018-12-16T08:12:23.251Z,71.66
2018-12-16T08:13:23.248Z,71.45
2018-12-16T08:14:23.883Z,70.83
2018-12-16T08:15:23.207Z,70.40
2018-12-16T08:16:23.330Z,70.51
2018-12-16T08:17:23.250Z,70.30
2018-12-16T08:18:23.157Z,70.83
2018-12-16T08:19:23.209Z,70.83
2018-12-16T08:20:23.153Z,70.72
2018-12-16T08:21:23.152Z,70.51
2018-12-16T08:22:23.131Z,68.63
2018-12-16T08:23:23.160Z,67.06
2018-12-16T08:24:23.521Z,67.06
2018-12-16T08:25:23.133Z,67.47
2018-12-16T08:26:23.129Z,67.76
2018-12-16T08:27:23.129Z,67.86
2018-12-16T08:28:23.119Z,69.15
2018-12-16T08:29:23.126Z,68.84
2018-12-16T08:30:23.105Z,68.94
2018-12-16T08:31:23.052Z,69.36
2018-12-16T08:32:23.020Z,69.85
2018-12-16T08:33:23.043Z,69.46
2018-12-16T08:34:23.215Z,69.12
2018-12-16T08:35:23.027Z,69.12
2018-12-16T08:36:23.280Z,69.33
2018-12-16T08:37:22.979Z,68.49
2018-12-16T08:38:23.023Z,68.49
2018-12-16T08:39:22.985Z,68.21
2018-12-16T08:40:22.950Z,68.38
2018-12-16T08:41:22.947Z,68.31
2018-12-16T08:42:23.018Z,68.49
2018-12-16T08:43:22.964Z,68.91
2018-12-16T08:44:22.933Z,68.10
2018-12-16T08:45:23.151Z,68.49
2018-12-16T08:46:23.806Z,68.80
2018-12-16T08:47:22.895Z,68.70
2018-12-16T08:48:23.031Z,67.34
2018-12-16T08:49:22.883Z,68.28
2018-12-16T08:50:22.928Z,67.97
2018-12-16T08:51:22.835Z,67.65
2018-12-16T08:52:22.902Z,67.65
2018-12-16T08:53:22.814Z,67.44
2018-12-16T08:54:29.835Z,67.97
2018-12-16T08:55:23.812Z,67.86
2018-12-16T08:56:22.807Z,68.07
2018-12-16T08:57:22.787Z,67.03
2018-12-16T08:58:22.754Z,67.13
2018-12-16T08:59:22.828Z,66.61
2018-12-16T09:00:22.936Z,67.13
2018-12-16T09:01:22.748Z,65.56
2018-12-16T09:02:22.773Z,65.17
2018-12-16T09:03:22.705Z,65.56
2018-12-16T09:04:22.709Z,65.67
2018-12-16T09:05:22.720Z,66.50
2018-12-16T09:06:22.709Z,66.19
2018-12-16T09:07:22.705Z,66.40
2018-12-16T09:08:22.820Z,66.50
2018-12-16T09:09:22.676Z,65.88
2018-12-16T09:10:22.645Z,65.77
2018-12-16T09:11:22.663Z,66.19
2018-12-16T09:12:22.603Z,67.13
2018-12-16T09:13:22.607Z,66.93
2018-12-16T09:14:22.641Z,66.61
2018-12-16T09:15:22.582Z,66.93
2018-12-16T09:16:22.569Z,66.82
2018-12-16T09:17:22.565Z,66.93
2018-12-16T09:18:22.586Z,66.71
2018-12-16T09:19:22.558Z,66.93
2018-12-16T09:20:22.579Z,66.93
2018-12-16T09:21:23.337Z,67.03
2018-12-16T09:22:22.513Z,66.82
2018-12-16T09:23:22.512Z,66.74
2018-12-16T09:24:22.474Z,66.82
2018-12-16T09:25:23.334Z,66.71
2018-12-16T09:26:22.895Z,66.82
2018-12-16T09:27:22.462Z,66.61
2018-12-16T09:28:22.433Z,66.78
2018-12-16T09:29:22.475Z,66.82
2018-12-16T09:30:22.553Z,66.82
2018-12-16T09:31:22.455Z,66.89
2018-12-16T09:32:22.684Z,66.47
2018-12-16T09:33:22.386Z,66.68
2018-12-16T09:34:22.394Z,67.00
2018-12-16T09:35:22.435Z,66.27
2018-12-16T09:36:22.378Z,66.68
2018-12-16T09:37:22.376Z,66.47
2018-12-16T09:38:22.371Z,65.53
2018-12-16T09:39:22.344Z,65.43
2018-12-16T09:40:22.353Z,65.43
2018-12-16T09:41:22.384Z,64.90
2018-12-16T09:42:22.356Z,65.53
2018-12-16T09:43:22.384Z,65.33
2018-12-16T09:44:22.278Z,65.43
2018-12-16T09:45:22.353Z,65.11
2018-12-16T09:46:22.285Z,64.59
2018-12-16T09:47:22.221Z,64.80
2018-12-16T09:48:22.257Z,64.59
2018-12-16T09:49:22.256Z,63.68
2018-12-16T09:50:22.228Z,64.17
2018-12-16T09:51:22.228Z,64.70
2018-12-16T09:52:23.669Z,64.59
2018-12-16T09:53:22.178Z,64.62
2018-12-16T09:54:22.213Z,64.90
2018-12-16T09:55:22.198Z,64.07
2018-12-16T09:56:22.199Z,65.01
2018-12-16T09:57:22.180Z,63.34
2018-12-16T09:58:22.197Z,64.90
2018-12-16T09:59:22.121Z,64.80
2018-12-16T10:00:22.218Z,64.80
2018-12-16T10:01:22.210Z,64.80
2018-12-16T10:02:22.142Z,64.70
2018-12-16T10:03:22.081Z,64.07
2018-12-16T10:04:22.065Z,64.39
2018-12-16T10:05:22.059Z,64.49
2018-12-16T10:06:22.047Z,64.80
2018-12-16T10:07:22.048Z,64.17
2018-12-16T10:08:22.054Z,64.80
2018-12-16T10:09:22.041Z,64.73
2018-12-16T10:10:22.061Z,64.83
2018-12-16T10:11:22.053Z,64.73
2018-12-16T10:12:21.993Z,64.73
2018-12-16T10:13:22.040Z,64.83
2018-12-16T10:14:21.972Z,65.36
2018-12-16T10:15:21.992Z,65.56
2018-12-16T10:16:21.952Z,65.25
2018-12-16T10:17:22.013Z,65.04
2018-12-16T10:18:21.941Z,65.14
2018-12-16T10:19:21.923Z,64.90
2018-12-16T10:20:21.896Z,64.90
2018-12-16T10:21:21.894Z,64.10
2018-12-16T10:22:21.964Z,63.76
2018-12-16T10:23:21.857Z,63.55
2018-12-16T10:24:21.907Z,64.10
2018-12-16T10:25:21.871Z,63.89
2018-12-16T10:26:30.961Z,63.37
2018-12-16T10:27:21.837Z,63.47
2018-12-16T10:28:21.840Z,64.20
2018-12-16T10:29:21.869Z,64.73
2018-12-16T10:30:21.850Z,63.37
2018-12-16T10:31:21.811Z,63.37
2018-12-16T10:32:21.838Z,63.47
2018-12-16T10:33:21.826Z,63.26
2018-12-16T10:34:21.804Z,63.47
2018-12-16T10:35:21.747Z,63.89
2018-12-16T10:36:21.787Z,65.04
2018-12-16T10:37:21.760Z,65.04
2018-12-16T10:38:21.715Z,65.04
2018-12-16T10:39:21.807Z,65.04
2018-12-16T10:40:21.743Z,64.20
2018-12-16T10:41:21.712Z,64.00
2018-12-16T10:42:23.046Z,64.73
2018-12-16T10:43:21.718Z,64.51
2018-12-16T10:44:21.657Z,64.80
2018-12-16T10:45:21.677Z,64.28
2018-12-16T10:46:21.673Z,64.07
2018-12-16T10:47:21.610Z,64.31
2018-12-16T10:48:21.619Z,64.70
2018-12-16T10:49:21.626Z,64.70
2018-12-16T10:50:21.611Z,63.26
2018-12-16T10:51:21.584Z,64.39
2018-12-16T10:52:21.577Z,63.65
2018-12-16T10:53:21.585Z,64.07
2018-12-16T10:54:21.563Z,64.80
2018-12-16T10:55:21.549Z,64.94
2018-12-16T10:56:21.541Z,64.10
2018-12-16T10:57:21.556Z,65.04
2018-12-16T10:58:21.768Z,64.62
2018-12-16T10:59:21.486Z,64.73
2018-12-16T11:00:21.523Z,65.14
2018-12-16T11:01:21.491Z,64.62
2018-12-16T11:02:21.479Z,65.04
2018-12-16T11:03:21.484Z,65.04
2018-12-16T11:04:21.462Z,65.67
2018-12-16T11:05:21.445Z,65.33
2018-12-16T11:06:21.452Z,65.33
2018-12-16T11:07:21.405Z,64.80
2018-12-16T11:08:21.395Z,65.33
2018-12-16T11:09:21.409Z,64.49
2018-12-16T11:10:21.382Z,65.33
2018-12-16T11:11:21.385Z,64.49
2018-12-16T11:12:21.377Z,64.80
2018-12-16T11:13:21.335Z,65.22
2018-12-16T11:14:21.379Z,65.11
2018-12-16T11:15:21.384Z,64.80
2018-12-16T11:16:21.386Z,65.11
2018-12-16T11:17:21.376Z,64.80
2018-12-16T11:18:21.312Z,65.01
2018-12-16T11:19:21.292Z,63.13
2018-12-16T11:20:21.332Z,63.34
2018-12-16T11:21:21.286Z,63.44
2018-12-16T11:22:21.258Z,63.86
2018-12-16T11:23:21.294Z,63.96
2018-12-16T11:24:21.247Z,64.59
2018-12-16T11:25:21.295Z,64.59
2018-12-16T11:26:21.241Z,64.70
2018-12-16T11:27:21.229Z,64.90
2018-12-16T11:28:21.181Z,64.07
2018-12-16T11:29:21.200Z,64.80
2018-12-16T11:30:21.211Z,64.90
2018-12-16T11:31:21.212Z,65.01
2018-12-16T11:32:21.184Z,65.43
2018-12-16T11:33:21.155Z,65.14
2018-12-16T11:34:21.125Z,64.70
2018-12-16T11:35:21.134Z,65.14
2018-12-16T11:36:21.100Z,64.80
2018-12-16T11:37:21.155Z,65.14
2018-12-16T11:38:21.086Z,65.46
2018-12-16T11:39:21.091Z,65.25
2018-12-16T11:40:21.097Z,65.36
2018-12-16T11:41:21.075Z,65.04
2018-12-16T11:42:21.061Z,64.73
2018-12-16T11:43:21.041Z,64.59
2018-12-16T11:44:21.031Z,65.36
2018-12-16T11:45:21.057Z,65.22
2018-12-16T11:46:21.072Z,64.80
2018-12-16T11:47:21.007Z,64.83
2018-12-16T11:48:21.000Z,64.59
2018-12-16T11:49:20.989Z,63.37
2018-12-16T11:50:20.977Z,63.34
2018-12-16T11:51:20.954Z,63.23
2018-12-16T11:52:21.031Z,63.44
2018-12-16T11:53:20.965Z,63.55
2018-12-16T11:54:20.948Z,63.89
2018-12-16T11:55:20.893Z,63.13
2018-12-16T11:56:20.902Z,63.34
2018-12-16T11:57:20.899Z,62.60
2018-12-16T11:58:20.949Z,62.74
2018-12-16T11:59:20.893Z,61.59
2018-12-16T12:00:20.902Z,62.74
2018-12-16T12:01:20.855Z,62.74
2018-12-16T12:02:20.839Z,63.06
2018-12-16T12:03:21.054Z,63.06
2018-12-16T12:04:20.850Z,63.26
2018-12-16T12:05:21.125Z,63.16
2018-12-16T12:06:20.914Z,62.60
2018-12-16T12:07:20.809Z,62.95
2018-12-16T12:08:20.863Z,62.53
2018-12-16T12:09:20.805Z,63.02
2018-12-16T12:10:20.757Z,62.32
2018-12-16T12:11:20.782Z,61.56
2018-12-16T12:12:21.116Z,61.90
2018-12-16T12:13:20.785Z,61.90
2018-12-16T12:14:20.819Z,61.90
2018-12-16T12:15:20.726Z,62.22
2018-12-16T12:16:20.746Z,61.59
2018-12-16T12:20:07.537Z,61.77
2018-12-16T12:20:47.828Z,62.84
2018-12-16T12:21:47.760Z,62.71
2018-12-16T12:22:48.140Z,62.29
2018-12-16T12:23:47.676Z,62.32
2018-12-16T12:24:47.562Z,61.77
2018-12-16T12:25:57.124Z,62.50
2018-12-16T12:26:47.437Z,62.71
2018-12-16T12:27:47.422Z,62.29
2018-12-16T12:28:47.410Z,61.98
2018-12-16T12:29:47.427Z,62.60
2018-12-16T12:30:47.385Z,61.74
2018-12-16T12:31:47.418Z,61.95
2018-12-16T12:33:02.103Z,61.74
2018-12-16T12:33:47.387Z,61.35
2018-12-16T12:34:47.349Z,61.46
2018-12-16T12:35:47.454Z,61.66
2018-12-16T12:36:47.360Z,61.88
2018-12-16T12:37:47.366Z,62.71
2018-12-16T12:38:47.314Z,62.92
2018-12-16T12:39:47.496Z,62.60
2018-12-16T12:40:47.357Z,62.40
2018-12-16T12:41:47.273Z,62.29
2018-12-16T12:42:47.261Z,62.50
2018-12-16T12:43:47.247Z,62.71
2018-12-16T12:44:47.266Z,62.19
2018-12-16T12:45:48.140Z,61.88
2018-12-16T12:46:47.784Z,62.29
2018-12-16T12:47:47.348Z,62.92
2018-12-16T12:48:47.646Z,61.98
2018-12-16T12:49:48.087Z,61.98
2018-12-16T12:50:47.189Z,63.02
2018-12-16T12:51:47.219Z,62.08
2018-12-16T12:52:51.104Z,63.13
2018-12-16T12:53:47.282Z,62.92
2018-12-16T12:54:47.154Z,62.92